createdAt,value
2023-05-02T00:03:58.106Z,6.97
2023-05-02T00:09:00.221Z,8.77
2023-05-02T00:14:01.987Z,7.38
2023-05-02T00:19:03.788Z,13.93
2023-05-02T00:24:06.027Z,8.95
2023-05-02T00:29:08.411Z,9.32
2023-05-02T00:34:10.224Z,9.77
2023-05-02T00:39:12.037Z,8.70
2023-05-02T00:44:13.797Z,9.73
2023-05-02T00:49:15.602Z,7.95
2023-05-02T00:54:17.697Z,8.50
2023-05-02T00:59:19.989Z,9.52
2023-05-02T01:05:01.213Z,9.15
2023-05-02T01:10:20.243Z,9.82
2023-05-02T01:15:23.620Z,11.00
2023-05-02T01:20:29.371Z,13.18
2023-05-02T01:25:51.640Z,12.57
2023-05-02T01:30:56.351Z,10.57
2023-05-02T01:35:59.783Z,19.90
2023-05-02T01:41:05.393Z,12.07
2023-05-02T01:46:11.260Z,10.90
2023-05-02T01:51:17.255Z,14.30
2023-05-02T01:56:21.448Z,12.88
2023-05-02T02:01:27.533Z,13.25
2023-05-02T02:06:29.456Z,12.65
2023-05-02T02:11:46.687Z,14.32
2023-05-02T02:16:50.862Z,16.90
2023-05-02T02:21:56.167Z,26.75
2023-05-02T02:26:57.976Z,33.63
2023-05-02T02:31:59.766Z,38.20
2023-05-02T02:37:08.950Z,21.38
2023-05-02T02:42:24.735Z,29.75
2023-05-02T02:47:37.408Z,30.45
2023-05-02T02:52:54.253Z,27.65
2023-05-02T02:58:02.108Z,28.02
2023-05-02T03:03:07.197Z,32.60
2023-05-02T03:08:09.097Z,38.22
2023-05-02T03:13:11.190Z,46.30
2023-05-02T03:18:14.798Z,46.65
2023-05-02T03:23:16.785Z,44.92
2023-05-02T03:28:18.647Z,55.83
2023-05-02T03:33:23.771Z,51.33
2023-05-02T03:38:25.722Z,60.35
2023-05-02T03:43:27.593Z,52.65
2023-05-02T03:48:30.692Z,52.30
2023-05-02T03:53:33.587Z,69.20
2023-05-02T03:58:36.518Z,72.25
2023-05-02T04:03:39.548Z,75.32
2023-05-02T04:08:43.474Z,67.32
2023-05-02T04:13:45.319Z,63.63
2023-05-02T04:18:47.375Z,69.15
2023-05-02T04:23:49.232Z,81.57
2023-05-02T04:28:51.142Z,78.13
2023-05-02T04:33:53.176Z,86.18
2023-05-02T04:38:59.097Z,79.82
2023-05-02T04:44:01.086Z,82.68
2023-05-02T04:49:03.401Z,83.07
2023-05-02T04:54:05.352Z,82.45
2023-05-02T04:59:07.228Z,75.88
2023-05-02T05:04:10.160Z,79.47
2023-05-02T05:09:12.312Z,70.05
2023-05-02T05:14:14.337Z,77.95
2023-05-02T05:19:18.934Z,72.20
2023-05-02T05:24:21.306Z,73.82
2023-05-02T05:29:24.940Z,71.40
2023-05-02T05:34:27.150Z,68.38
2023-05-02T05:39:32.677Z,73.85
2023-05-02T05:44:36.637Z,73.53
2023-05-02T05:49:39.040Z,74.38
2023-05-02T05:54:44.096Z,71.60
2023-05-02T05:59:46.142Z,77.05
2023-05-02T06:04:49.803Z,62.70
2023-05-02T06:09:55.026Z,62.42
2023-05-02T06:14:57.089Z,57.13
2023-05-02T06:19:59.202Z,62.20
2023-05-02T06:25:02.336Z,63.17
2023-05-02T06:30:05.289Z,61.35
2023-05-02T06:35:07.302Z,47.88
2023-05-02T06:40:10.211Z,46.33
2023-05-02T06:45:11.973Z,40.47
2023-05-02T06:50:13.791Z,40.83
2023-05-02T06:55:15.837Z,38.42
2023-05-02T07:00:19.211Z,38.55
2023-05-02T07:05:21.012Z,36.78
2023-05-02T07:10:23.016Z,38.45
2023-05-02T07:15:24.782Z,42.63
2023-05-02T07:20:26.598Z,40.83
2023-05-02T07:25:28.431Z,43.22
2023-05-02T07:30:30.246Z,43.15
2023-05-02T07:35:32.003Z,38.90
2023-05-02T07:40:33.753Z,38.17
2023-05-02T07:45:35.662Z,32.67
2023-05-02T07:50:37.404Z,33.08
2023-05-02T07:55:39.150Z,36.72
2023-05-02T08:00:41.022Z,35.47
2023-05-02T08:05:42.877Z,32.05
2023-05-02T08:10:45.466Z,33.33
2023-05-02T08:15:47.309Z,30.63
2023-05-02T08:20:50.788Z,30.48
2023-05-02T08:25:52.566Z,30.33
2023-05-02T08:30:54.425Z,28.58
2023-05-02T08:35:56.239Z,27.45
2023-05-02T08:40:58.024Z,29.33
2023-05-02T08:46:01.934Z,28.25
2023-05-02T08:51:05.060Z,27.15
2023-05-02T08:56:07.895Z,27.65
2023-05-02T09:01:14.920Z,26.98
2023-05-02T09:06:19.080Z,27.52
2023-05-02T09:11:21.703Z,21.38
2023-05-02T09:16:26.023Z,20.40
2023-05-02T09:21:40.350Z,21.00
2023-05-02T09:26:42.153Z,19.13
2023-05-02T09:31:55.559Z,18.50
2023-05-02T09:36:58.546Z,21.05
2023-05-02T09:42:01.560Z,19.40
2023-05-02T09:47:03.660Z,16.00
2023-05-02T09:52:22.368Z,17.73
2023-05-02T09:57:40.788Z,18.48
2023-05-02T10:02:43.318Z,16.58
2023-05-02T10:07:46.213Z,12.68
2023-05-02T10:12:52.369Z,15.25
2023-05-02T10:17:58.401Z,13.75
2023-05-02T10:23:01.466Z,12.02
2023-05-02T10:28:03.844Z,11.10
2023-05-02T10:33:06.099Z,10.65
2023-05-02T10:38:08.039Z,10.10
2023-05-02T10:43:15.970Z,7.30
2023-05-02T10:48:19.800Z,5.75
2023-05-02T10:53:28.732Z,5.30
2023-05-02T10:58:30.558Z,5.90
2023-05-02T11:03:54.175Z,5.50
2023-05-02T11:09:18.700Z,6.93
2023-05-02T11:14:26.427Z,5.45
2023-05-02T11:19:31.229Z,5.70
2023-05-02T11:24:51.697Z,7.43
2023-05-02T11:29:55.028Z,6.18
2023-05-02T11:34:56.948Z,6.50
2023-05-02T11:40:11.552Z,6.40
2023-05-02T11:45:13.453Z,8.13
2023-05-02T11:50:15.943Z,8.50
2023-05-02T11:55:17.906Z,8.73
2023-05-02T12:00:19.753Z,10.05
2023-05-02T12:05:32.640Z,10.57
2023-05-02T12:10:37.744Z,11.10
2023-05-02T12:15:39.701Z,10.32
2023-05-02T12:20:42.290Z,10.93
2023-05-02T12:25:44.106Z,9.35
2023-05-02T12:30:48.830Z,8.65
2023-05-02T12:35:51.284Z,11.40
2023-05-02T12:40:57.593Z,9.35
2023-05-02T12:46:12.530Z,8.00
2023-05-02T12:51:22.741Z,7.43
2023-05-02T13:01:27.240Z,8.57
2023-05-02T13:06:29.176Z,10.00
2023-05-02T13:11:31.028Z,9.52
2023-05-02T13:16:34.810Z,10.10
2023-05-02T13:21:36.710Z,10.20
2023-05-02T13:26:38.570Z,9.52
2023-05-02T13:31:40.430Z,7.68
2023-05-02T13:36:46.413Z,12.32
2023-05-02T13:41:48.486Z,9.38
2023-05-02T13:46:50.233Z,9.35
2023-05-02T13:51:51.988Z,5.90
2023-05-02T13:56:53.951Z,10.65
2023-05-02T14:01:56.142Z,7.03
2023-05-02T14:06:58.060Z,7.38
2023-05-02T14:11:59.960Z,6.63
2023-05-02T14:17:02.772Z,6.90
2023-05-02T14:22:04.599Z,7.70
2023-05-02T14:27:07.748Z,8.27
2023-05-02T14:32:09.536Z,8.02
2023-05-02T14:37:11.352Z,8.27
2023-05-02T14:42:13.167Z,7.72
2023-05-02T14:47:15.017Z,7.82
2023-05-02T14:52:16.873Z,7.72
2023-05-02T14:57:18.878Z,10.82
2023-05-02T15:02:21.940Z,9.63
2023-05-02T15:07:23.951Z,6.35
2023-05-02T15:12:26.410Z,7.53
2023-05-02T15:17:28.152Z,6.80
2023-05-02T15:22:29.947Z,6.55
2023-05-02T15:27:31.755Z,11.90
2023-05-02T15:32:33.640Z,5.45
2023-05-02T15:37:36.101Z,8.40
2023-05-02T15:42:37.953Z,7.95
2023-05-02T15:47:40.515Z,7.72
2023-05-02T15:52:42.612Z,7.55
2023-05-02T15:57:44.393Z,6.63
2023-05-02T16:02:46.277Z,7.30
2023-05-02T16:07:48.178Z,7.68
2023-05-02T16:12:50.057Z,8.27
2023-05-02T16:17:51.948Z,6.55
2023-05-02T16:22:53.900Z,7.90
2023-05-02T16:27:55.805Z,6.50
2023-05-02T16:32:57.669Z,10.15
2023-05-02T16:37:59.598Z,10.05
2023-05-02T16:43:01.495Z,7.75
2023-05-02T16:48:04.672Z,7.60
2023-05-02T16:53:07.056Z,6.88
2023-05-02T16:58:08.773Z,7.13
2023-05-02T17:03:11.118Z,5.82
2023-05-02T17:08:13.852Z,8.05
2023-05-02T17:13:16.296Z,8.05
2023-05-02T17:18:18.123Z,9.73
2023-05-02T17:23:19.958Z,6.30
2023-05-02T17:28:21.847Z,6.03
2023-05-02T17:33:23.751Z,6.72
2023-05-02T17:38:26.732Z,6.97
2023-05-02T17:43:28.523Z,6.20
2023-05-02T17:48:30.244Z,7.78
2023-05-02T17:53:34.720Z,9.23
2023-05-02T17:58:37.453Z,8.75
2023-05-02T18:03:39.941Z,10.68
2023-05-02T18:08:41.761Z,9.60
2023-05-02T18:13:44.488Z,9.70
2023-05-02T18:18:46.360Z,8.60
2023-05-02T18:23:48.440Z,7.10
2023-05-02T18:28:53.506Z,8.60
2023-05-02T18:33:55.532Z,4.97
2023-05-02T18:38:57.529Z,6.07
2023-05-02T18:44:00.799Z,6.55
2023-05-02T18:49:02.972Z,8.93
2023-05-02T18:54:04.832Z,7.20
2023-05-02T18:59:06.719Z,7.85
2023-05-02T19:04:08.496Z,10.30
2023-05-02T19:09:12.504Z,9.50
2023-05-02T19:14:14.382Z,6.70
2023-05-02T19:19:17.473Z,7.78
2023-05-02T19:24:21.158Z,15.85
2023-05-02T19:29:23.012Z,11.70
2023-05-02T19:34:24.725Z,7.55
2023-05-02T19:39:26.524Z,7.47
2023-05-02T19:44:28.286Z,9.05
2023-05-02T19:49:30.055Z,9.73
2023-05-02T19:54:33.345Z,7.38
2023-05-02T19:59:35.075Z,8.73
2023-05-02T20:04:36.973Z,15.50
2023-05-02T20:09:38.735Z,12.95
2023-05-02T20:14:41.783Z,13.98
2023-05-02T20:19:45.363Z,9.13
2023-05-02T20:24:47.094Z,10.30
2023-05-02T20:29:48.867Z,8.10
2023-05-02T20:34:50.785Z,6.80
2023-05-02T20:39:52.726Z,9.88
2023-05-02T20:44:57.229Z,12.65
2023-05-02T20:49:59.624Z,10.63
2023-05-02T20:55:01.811Z,42.88
2023-05-02T21:00:04.572Z,30.70
2023-05-02T21:05:07.243Z,22.65
2023-05-02T21:10:10.858Z,18.05
2023-05-02T21:15:15.345Z,14.23
2023-05-02T21:20:17.108Z,11.48
2023-05-02T21:25:19.254Z,15.75
2023-05-02T21:30:21.390Z,24.08
2023-05-02T21:35:23.147Z,11.00
2023-05-02T21:40:24.901Z,9.27
2023-05-02T21:45:26.963Z,9.98
2023-05-02T21:50:29.428Z,13.65
2023-05-02T21:55:31.183Z,10.48
2023-05-02T22:00:33.538Z,12.35
2023-05-02T22:05:40.073Z,15.30
2023-05-02T22:10:43.364Z,15.45
2023-05-02T22:15:46.734Z,13.55
2023-05-02T22:20:48.507Z,13.00
2023-05-02T22:25:50.299Z,13.05
2023-05-02T22:30:52.018Z,11.45
2023-05-02T22:35:53.836Z,11.68
2023-05-02T22:40:55.633Z,10.68
2023-05-02T22:45:58.967Z,11.82
2023-05-02T22:51:01.074Z,9.85
2023-05-02T22:56:03.489Z,10.77
2023-05-02T23:01:05.306Z,10.15
2023-05-02T23:06:07.279Z,10.95
2023-05-02T23:11:09.089Z,11.25
2023-05-02T23:16:10.907Z,10.95
2023-05-02T23:21:16.527Z,13.07
2023-05-02T23:26:18.258Z,12.40
2023-05-02T23:31:20.122Z,11.18
2023-05-02T23:36:22.060Z,10.75
2023-05-02T23:41:23.993Z,10.82
2023-05-02T23:46:25.931Z,11.60
2023-05-02T23:51:28.515Z,11.70
2023-05-02T23:56:30.334Z,10.57
